Terminal Aerodrome Forecast
Issued by NWS Twin Cities, MN

Home | Current Version | Previous Version | Text Only | Print | Product List | Glossary Off
Versions: 1 2 3 4 5 6 7 8 9 10 11 12 13 14 15

000
FTUS43 KMPX 140500
TAFSTC
TAF
KSTC 140528Z 1406/1506 35017G24KT P6SM SCT035 OVC250
     FM141200 33016G23KT P6SM BKN250
     FM141900 33015G22KT P6SM BKN060
     FM150100 31011KT P6SM SCT060=

USA.gov is the U.S. government's official web portal to all federal, state and local government web resources and services.